Time;durP1;ratioP1;P1;durP2;ratioP2;P2;SDS_P1;SDS_P2;PMS_P1;PMS_P2;Temp;Humidity;BMP_temperature;BMP_pressure;BME280_temperature;BME280_humidity;BME280_pressure;Samples;Min_cycle;Max_cycle;Signal;HPM_P1;HPM_P2
2021/12/08 00:01:44;;;;;;;15.52;12.80;;;;;;;0.89;82.36;99540.97;4964052;28;20407;-55
2021/12/08 00:04:30;;;;;;;19.33;13.70;;;;;;;0.77;81.72;99544.22;4944561;29;20034;-55
2021/12/08 00:07:16;;;;;;;20.10;14.18;;;;;;;0.82;82.18;99546.81;4957788;29;20066;-56
2021/12/08 00:13:01;;;;;;;19.13;13.77;;;;;;;0.69;81.30;99551.72;4953743;29;20355;-55
2021/12/08 00:13:10;;;;;;;17.63;13.50;;;;;;;0.72;81.73;99566.22;4945822;29;20102;-55
2021/12/08 00:16:01;;;;;;;21.00;13.75;;;;;;;0.66;81.86;99572.06;4959026;29;20276;-54
2021/12/08 00:18:48;;;;;;;16.98;13.07;;;;;;;0.55;81.53;99570.16;4961785;29;20044;-54
2021/12/08 00:21:34;;;;;;;17.08;12.82;;;;;;;0.45;80.94;99557.25;4960895;29;20035;-55
2021/12/08 00:24:20;;;;;;;18.33;13.00;;;;;;;0.50;81.42;99565.00;4960613;29;20042;-54
2021/12/08 00:27:06;;;;;;;16.80;13.07;;;;;;;0.53;80.84;99580.34;4961172;29;20042;-54
2021/12/08 00:29:52;;;;;;;18.38;13.32;;;;;;;0.37;80.84;99575.78;4954831;29;20024;-55
2021/12/08 00:32:38;;;;;;;16.33;13.10;;;;;;;0.40;81.84;99573.28;4938827;28;20297;-55
2021/12/08 00:35:24;;;;;;;16.52;12.88;;;;;;;0.33;80.67;99560.47;4957723;29;20094;-56
2021/12/08 00:38:10;;;;;;;20.25;13.73;;;;;;;0.41;81.69;99560.56;4960536;29;20391;-55
2021/12/08 00:40:57;;;;;;;20.85;13.50;;;;;;;0.44;81.29;99564.88;4960005;29;20218;-55
2021/12/08 00:43:43;;;;;;;18.23;13.23;;;;;;;0.46;81.27;99566.63;4960502;29;20035;-55
2021/12/08 00:46:29;;;;;;;16.77;13.23;;;;;;;0.41;80.89;99567.38;4959351;29;20030;-56
2021/12/08 00:49:16;;;;;;;18.90;13.02;;;;;;;0.41;80.62;99555.50;4959625;29;20078;-55
2021/12/08 00:52:02;;;;;;;18.75;14.40;;;;;;;0.44;80.94;99569.97;4959174;29;20327;-56
2021/12/08 00:54:48;;;;;;;18.33;13.63;;;;;;;0.38;80.39;99573.25;4956362;29;20043;-56
2021/12/08 00:57:35;;;;;;;16.75;12.50;;;;;;;0.31;80.57;99579.09;4959184;29;20030;-56
2021/12/08 01:00:35;;;;;;;16.13;12.70;;;;;;;0.14;81.11;99540.56;4959803;29;20037;-56
2021/12/08 01:03:21;;;;;;;18.25;13.30;;;;;;;0.30;80.71;99598.63;4958420;29;20054;-55
2021/12/08 01:06:07;;;;;;;19.08;13.50;;;;;;;0.27;80.20;99605.31;4961281;29;20046;-55
2021/12/08 01:08:53;;;;;;;19.38;13.80;;;;;;;0.13;80.09;99600.84;4959234;29;20035;-55
2021/12/08 01:11:40;;;;;;;20.13;14.13;;;;;;;0.14;80.32;99596.59;4943879;29;20059;-55
2021/12/08 01:14:26;;;;;;;20.48;14.68;;;;;;;-0.03;80.69;99606.44;4959834;29;20106;-55
2021/12/08 01:17:14;;;;;;;20.25;14.32;;;;;;;0.19;81.04;99610.28;4961120;29;20328;-55
2021/12/08 01:20:00;;;;;;;22.08;14.20;;;;;;;0.08;79.97;99612.59;4954108;29;20333;-56
2021/12/08 01:22:46;;;;;;;18.38;13.80;;;;;;;0.00;80.36;99611.63;4961790;29;20039;-55
2021/12/08 01:25:32;;;;;;;18.50;12.50;;;;;;;-0.02;79.89;99615.81;4960095;29;20309;-56
2021/12/08 01:28:20;;;;;;;18.58;12.57;;;;;;;0.01;78.66;99620.09;4960276;29;20031;-56
2021/12/08 01:31:06;;;;;;;19.50;13.20;;;;;;;0.06;80.32;99618.50;4959798;29;20043;-56
2021/12/08 01:33:53;;;;;;;16.98;12.38;;;;;;;-0.20;79.84;99611.19;4944129;29;20027;-55
2021/12/08 01:36:40;;;;;;;17.58;12.40;;;;;;;-0.14;79.28;99616.44;4969977;28;20074;-55
2021/12/08 01:39:25;;;;;;;16.70;11.85;;;;;;;-0.14;78.57;99621.50;4960190;29;20368;-54
2021/12/08 01:42:17;;;;;;;18.80;12.93;;;;;;;-0.08;78.70;99625.88;4960577;29;20138;-54
2021/12/08 01:48:13;;;;;;;17.08;13.02;;;;;;;-0.02;79.61;99626.00;4959549;29;20351;-56
2021/12/08 01:51:05;;;;;;;16.77;13.00;;;;;;;-0.68;78.69;99561.88;4951626;29;20038;-56
2021/12/08 01:53:55;;;;;;;21.02;14.32;;;;;;;-0.23;79.67;99609.47;4954323;29;20035;-55
2021/12/08 01:56:41;;;;;;;18.92;13.50;;;;;;;-0.30;78.86;99617.78;4951920;29;20329;-56
2021/12/08 01:59:27;;;;;;;20.33;14.07;;;;;;;-0.38;79.22;99624.41;4947348;29;20117;-56
2021/12/08 02:02:14;;;;;;;20.45;13.93;;;;;;;-0.49;79.10;99633.47;4958677;29;20031;-56
2021/12/08 02:05:01;;;;;;;19.27;13.43;;;;;;;-0.67;79.09;99634.78;4958382;29;20054;-56
2021/12/08 02:07:47;;;;;;;19.40;12.85;;;;;;;-0.44;79.53;99644.59;4958868;29;20042;-55
2021/12/08 02:10:36;;;;;;;20.20;14.88;;;;;;;-0.80;77.92;99576.84;4959321;29;20038;-54
2021/12/08 02:13:22;;;;;;;20.60;13.50;;;;;;;-0.51;79.88;99630.91;4948618;29;20028;-55
2021/12/08 02:16:12;;;;;;;22.17;14.75;;;;;;;-1.01;80.27;99583.16;4959394;28;20054;-55
2021/12/08 02:18:59;;;;;;;22.83;14.80;;;;;;;-0.57;79.35;99644.34;4952339;29;20047;-54
2021/12/08 02:21:52;;;;;;;22.08;15.23;;;;;;;-0.77;79.68;99645.53;4946450;28;20036;-55
2021/12/08 02:24:37;;;;;;;23.00;15.70;;;;;;;-0.57;80.43;99653.63;4942032;29;20098;-55
2021/12/08 02:27:23;;;;;;;23.95;15.80;;;;;;;-0.70;80.04;99635.56;4960270;28;20031;-55
2021/12/08 02:30:59;;;;;;;23.88;15.32;;;;;;;-0.57;80.10;99671.44;4950642;29;20028;-55
2021/12/08 02:48:46;;;;;;;23.73;15.80;;;;;;;-0.64;80.24;99678.06;4957770;29;20035;-55
2021/12/08 02:51:36;;;;;;;23.65;16.67;;;;;;;-0.66;80.15;99672.09;4958802;29;20098;-55
2021/12/08 02:54:23;;;;;;;28.58;17.83;;;;;;;-0.76;80.74;99668.47;4941410;28;20048;-55
2021/12/08 02:57:12;;;;;;;24.35;16.55;;;;;;;-0.66;79.84;99671.22;4944348;28;20325;-57
2021/12/08 02:59:58;;;;;;;28.08;17.52;;;;;;;-0.66;80.13;99673.78;4952517;29;20256;-56
2021/12/08 03:02:44;;;;;;;30.55;18.75;;;;;;;-0.72;79.17;99687.19;4944174;29;20044;-56
2021/12/08 03:05:31;;;;;;;26.67;17.90;;;;;;;-0.91;77.91;99689.28;4963505;29;20054;-54
2021/12/08 03:08:17;;;;;;;25.40;17.23;;;;;;;-1.05;79.07;99696.56;4962592;29;20038;-55
2021/12/08 03:11:03;;;;;;;26.08;16.30;;;;;;;-1.59;77.94;99705.28;4961912;29;20031;-55
2021/12/08 03:14:02;;;;;;;22.70;15.98;;;;;;;-1.57;78.67;99707.88;4963166;29;20065;-54
2021/12/08 03:16:54;;;;;;;25.13;16.30;;;;;;;-1.99;79.00;99648.34;4948586;29;20104;-56
2021/12/08 03:19:40;;;;;;;25.33;16.85;;;;;;;-1.51;79.35;99715.69;4960881;29;20045;-57
2021/12/08 03:22:26;;;;;;;25.75;17.00;;;;;;;-1.44;79.78;99724.31;4961516;29;20042;-55
2021/12/08 03:25:17;;;;;;;24.15;15.80;;;;;;;-1.83;79.38;99718.16;4961100;29;20023;-56
2021/12/08 03:28:12;;;;;;;28.73;17.77;;;;;;;-1.66;79.60;99736.41;4962002;29;20035;-55
2021/12/08 03:31:06;;;;;;;26.20;17.23;;;;;;;-1.69;79.01;99722.78;4957466;28;20036;-55
2021/12/08 03:33:54;;;;;;;27.23;18.13;;;;;;;-2.06;79.83;99694.66;4944338;29;20050;-55
2021/12/08 03:36:40;;;;;;;24.80;16.92;;;;;;;-1.84;79.81;99723.19;4957878;29;20032;-56
2021/12/08 03:39:26;;;;;;;27.02;18.15;;;;;;;-1.63;79.73;99723.78;4962325;29;20069;-54
2021/12/08 03:42:12;;;;;;;26.52;17.88;;;;;;;-1.53;78.93;99731.69;4962952;28;20118;-55
2021/12/08 03:45:01;;;;;;;26.05;17.70;;;;;;;-1.59;79.39;99733.22;4961403;29;20333;-55
2021/12/08 03:48:00;;;;;;;25.90;17.90;;;;;;;-1.58;79.32;99762.88;4962745;29;20086;-56
2021/12/08 03:50:47;;;;;;;25.90;18.27;;;;;;;-1.41;80.38;99732.88;4955324;29;20082;-55
2021/12/08 03:53:33;;;;;;;29.73;18.63;;;;;;;-1.67;78.67;99729.59;4959436;29;20263;-55
2021/12/08 03:56:19;;;;;;;27.10;17.98;;;;;;;-1.69;78.53;99743.94;4961480;29;20104;-55
2021/12/08 03:59:06;;;;;;;27.38;17.20;;;;;;;-1.84;78.78;99746.03;4962566;29;20027;-55
2021/12/08 04:01:52;;;;;;;24.65;15.85;;;;;;;-2.04;77.38;99763.19;4955287;29;20032;-55
2021/12/08 04:04:45;;;;;;;24.88;16.02;;;;;;;-2.08;77.81;99755.50;4943493;29;20245;-54
2021/12/08 04:07:32;;;;;;;24.15;15.25;;;;;;;-2.10;76.97;99748.66;4960662;28;20358;-55
2021/12/08 04:10:20;;;;;;;26.70;17.23;;;;;;;-2.03;76.28;99768.31;4961316;29;20155;-55
2021/12/08 04:13:06;;;;;;;27.08;17.10;;;;;;;-2.13;76.28;99762.09;4963690;28;20287;-56
2021/12/08 04:15:52;;;;;;;26.58;17.10;;;;;;;-2.03;77.54;99772.53;4961057;29;20321;-55
2021/12/08 04:18:38;;;;;;;24.63;16.08;;;;;;;-2.21;76.69;99772.81;4944083;29;20023;-56
2021/12/08 04:21:26;;;;;;;25.35;16.10;;;;;;;-2.20;76.72;99783.00;4946337;29;20070;-56
2021/12/08 04:24:14;;;;;;;26.88;16.13;;;;;;;-2.23;77.58;99785.44;4961567;29;20094;-56
2021/12/08 04:27:07;;;;;;;26.25;15.73;;;;;;;-2.23;75.52;99780.38;4958654;29;20046;-56
2021/12/08 04:29:54;;;;;;;26.52;16.58;;;;;;;-2.22;76.93;99786.31;4960952;29;20355;-55
2021/12/08 04:32:40;;;;;;;28.20;16.40;;;;;;;-2.22;76.86;99784.66;4949569;29;20046;-56
2021/12/08 04:35:28;;;;;;;30.75;16.48;;;;;;;-2.44;76.75;99798.31;4950175;29;20032;-56
2021/12/08 04:38:24;;;;;;;26.00;16.98;;;;;;;-2.32;76.86;99802.94;4948674;29;20027;-56
2021/12/08 04:41:18;;;;;;;29.20;16.42;;;;;;;-2.54;77.47;99743.03;4959772;29;20109;-54
2021/12/08 04:47:24;;;;;;;24.23;15.98;;;;;;;-2.51;78.27;99809.06;4955864;29;20336;-54
2021/12/08 04:50:45;;;;;;;26.73;16.15;;;;;;;-2.53;78.14;99806.47;4957690;29;20102;-56
2021/12/08 04:54:00;;;;;;;23.25;15.05;;;;;;;-2.54;77.37;99799.66;4960761;29;20031;-54
2021/12/08 05:03:22;;;;;;;26.05;15.65;;;;;;;-2.76;77.98;99787.97;4959883;29;20027;-55
2021/12/08 05:06:21;;;;;;;26.35;16.88;;;;;;;-3.06;77.61;99813.97;4959869;29;20043;-55
2021/12/08 05:09:20;;;;;;;24.90;16.02;;;;;;;-2.98;78.70;99812.56;4960904;29;20038;-55
2021/12/08 05:12:10;;;;;;;28.77;16.73;;;;;;;-2.97;77.77;99814.28;4943151;29;20205;-55
2021/12/08 05:15:15;;;;;;;24.95;15.68;;;;;;;-3.20;77.98;99784.75;4960600;29;20043;-55
2021/12/08 05:18:06;;;;;;;32.15;21.38;;;;;;;-2.65;78.23;99864.34;4945168;29;20240;-56
2021/12/08 05:21:04;;;;;;;29.88;17.48;;;;;;;-2.54;78.71;99845.28;4957153;29;20042;-55
2021/12/08 05:23:58;;;;;;;28.92;17.00;;;;;;;-2.76;77.79;99846.25;4958589;29;20135;-56
2021/12/08 05:26:54;;;;;;;28.92;17.02;;;;;;;-2.68;76.83;99866.78;4959848;29;20031;-56
2021/12/08 05:29:44;;;;;;;28.45;16.50;;;;;;;-3.16;76.27;99782.38;4954174;29;20032;-56
2021/12/08 05:32:30;;;;;;;25.25;16.08;;;;;;;-2.78;76.39;99852.91;4952491;29;20444;-56
2021/12/08 05:35:19;;;;;;;28.08;16.15;;;;;;;-3.02;77.57;99787.06;4958079;29;20047;-56
2021/12/08 05:38:05;;;;;;;30.58;16.60;;;;;;;-2.75;76.79;99863.19;4957835;29;20039;-56
2021/12/08 05:41:02;;;;;;;29.20;17.50;;;;;;;-2.86;77.10;99850.13;4960472;28;20106;-55
2021/12/08 05:43:49;;;;;;;30.48;17.33;;;;;;;-2.91;76.51;99871.03;4960396;29;20042;-55
2021/12/08 05:46:41;;;;;;;28.75;16.63;;;;;;;-3.11;77.37;99840.78;4960689;29;20039;-56
2021/12/08 05:49:27;;;;;;;28.80;16.38;;;;;;;-2.97;76.89;99869.16;4960201;29;20130;-55
2021/12/08 05:52:13;;;;;;;26.90;15.93;;;;;;;-2.95;76.90;99878.53;4960153;29;20212;-56
2021/12/08 05:55:00;;;;;;;26.73;16.05;;;;;;;-3.23;77.54;99881.72;4960996;28;20081;-55
2021/12/08 05:57:47;;;;;;;33.42;17.75;;;;;;;-3.13;78.27;99882.94;4943000;29;20027;-56
2021/12/08 06:00:56;;;;;;;30.15;16.52;;;;;;;-3.01;78.66;99893.50;4952336;29;20039;-55
2021/12/08 06:03:44;;;;;;;30.58;16.35;;;;;;;-2.96;78.57;99876.81;4960209;29;20486;-55
2021/12/08 06:06:31;;;;;;;29.17;16.23;;;;;;;-3.10;77.70;99893.19;4959321;29;20062;-55
2021/12/08 06:09:20;;;;;;;26.83;15.38;;;;;;;-3.04;77.23;99918.72;4942253;29;20256;-56
2021/12/08 06:12:08;;;;;;;26.67;15.38;;;;;;;-3.34;77.80;99833.22;4944457;29;20071;-56
2021/12/08 06:14:56;;;;;;;24.23;14.13;;;;;;;-3.00;77.00;99912.97;4946442;29;20375;-55
2021/12/08 06:17:42;;;;;;;24.73;13.93;;;;;;;-3.19;76.83;99908.91;4958339;29;20031;-55
2021/12/08 06:20:28;;;;;;;27.20;15.32;;;;;;;-3.25;77.48;99912.88;4949088;29;20061;-55
2021/12/08 06:23:14;;;;;;;27.40;14.05;;;;;;;-3.37;77.94;99918.34;4959523;29;20090;-56
2021/12/08 06:26:00;;;;;;;23.65;13.13;;;;;;;-3.52;77.43;99921.13;4956904;29;20043;-56
2021/12/08 06:28:47;;;;;;;23.08;14.68;;;;;;;-3.48;77.10;99911.19;4946703;29;20118;-56
2021/12/08 06:31:34;;;;;;;27.65;14.75;;;;;;;-3.35;78.83;99920.13;4954803;28;20020;-55
2021/12/08 06:34:24;;;;;;;25.25;13.73;;;;;;;-3.90;78.42;99850.50;4950576;29;20047;-55
2021/12/08 06:37:19;;;;;;;25.80;14.07;;;;;;;-4.00;77.61;99871.19;4962655;29;20328;-55
2021/12/08 06:40:05;;;;;;;25.08;13.70;;;;;;;-3.89;80.24;99942.44;4962729;29;20070;-55
2021/12/08 06:42:53;;;;;;;23.60;13.10;;;;;;;-4.04;79.37;99938.47;4960884;29;20042;-56
2021/12/08 06:45:44;;;;;;;25.92;14.25;;;;;;;-4.22;79.06;99867.81;4952823;29;20040;-56
2021/12/08 06:48:37;;;;;;;24.92;14.27;;;;;;;-3.75;79.04;99900.84;4951499;29;20024;-55
2021/12/08 06:51:29;;;;;;;26.75;14.05;;;;;;;-3.53;78.35;99939.66;4958456;29;20027;-55
2021/12/08 06:54:20;;;;;;;27.73;14.88;;;;;;;-3.88;78.66;99880.91;4960328;29;20025;-55
2021/12/08 06:57:20;;;;;;;27.00;15.45;;;;;;;-3.59;79.24;99941.94;4960634;29;20274;-55
2021/12/08 07:00:24;;;;;;;22.42;13.30;;;;;;;-3.90;77.82;99874.94;4952355;28;20075;-55
2021/12/08 07:04:06;;;;;;;26.42;14.23;;;;;;;-3.53;78.37;99940.53;4945564;29;20094;-55
2021/12/08 07:09:55;;;;;;;24.92;13.73;;;;;;;-3.30;78.47;99949.00;4962412;28;20032;-57
2021/12/08 07:12:46;;;;;;;24.27;12.82;;;;;;;-3.67;77.42;99908.75;4961775;29;20031;-55
2021/12/08 07:15:45;;;;;;;24.85;13.65;;;;;;;-3.37;76.97;99931.84;4963144;29;20023;-56
2021/12/08 07:18:52;;;;;;;19.50;12.88;;;;;;;-3.30;77.77;99970.94;4962033;29;20035;-55
2021/12/08 07:21:43;;;;;;;24.80;13.93;;;;;;;-3.21;77.71;99971.28;4962585;29;20109;-56
2021/12/08 07:24:35;;;;;;;23.88;13.43;;;;;;;-3.19;77.25;99968.81;4963358;29;20074;-55
2021/12/08 07:27:25;;;;;;;24.15;13.07;;;;;;;-3.24;76.89;99993.09;4963863;28;20035;-56
2021/12/08 07:30:21;;;;;;;22.80;13.25;;;;;;;-3.17;76.98;99972.28;4949394;29;20074;-56
2021/12/08 07:33:08;;;;;;;22.88;13.15;;;;;;;-3.09;76.83;99973.44;4947447;29;20038;-56
2021/12/08 07:35:58;;;;;;;23.75;13.32;;;;;;;-3.47;76.02;99915.44;4947547;29;20324;-55
2021/12/08 07:38:54;;;;;;;23.17;12.70;;;;;;;-3.25;76.08;99972.00;4962795;29;20023;-56
2021/12/08 07:41:45;;;;;;;22.80;12.63;;;;;;;-3.62;76.27;99919.88;4961911;28;20113;-56
2021/12/08 07:44:31;;;;;;;20.75;12.80;;;;;;;-3.16;77.06;99989.19;4962507;29;20082;-55
2021/12/08 07:47:19;;;;;;;24.23;12.75;;;;;;;-3.23;76.46;99984.72;4962226;29;20063;-56
2021/12/08 07:50:18;;;;;;;22.27;13.70;;;;;;;-3.14;76.96;99985.91;4960495;29;20023;-57
2021/12/08 07:53:08;;;;;;;24.10;14.57;;;;;;;-3.68;77.02;99923.06;4959042;29;20031;-55
2021/12/08 07:56:02;;;;;;;23.20;13.38;;;;;;;-3.55;77.08;99979.22;4960747;29;20031;-55
2021/12/08 07:58:53;;;;;;;20.60;12.45;;;;;;;-3.49;77.78;100009.84;4950908;29;20026;-55
2021/12/08 08:01:42;;;;;;;20.98;12.52;;;;;;;-3.85;77.63;99936.69;4984691;28;20147;-55
2021/12/08 08:04:28;;;;;;;22.83;13.55;;;;;;;-3.44;77.80;100002.44;4961533;29;20086;-55
2021/12/08 08:07:16;;;;;;;22.60;14.13;;;;;;;-3.46;78.56;99989.72;4960210;28;20031;-55
2021/12/08 08:10:12;;;;;;;25.45;14.10;;;;;;;-3.79;78.33;99951.25;4961577;29;20034;-57
2021/12/08 08:13:02;;;;;;;27.65;14.70;;;;;;;-3.62;79.19;99988.22;4960866;29;20185;-55
2021/12/08 08:15:52;;;;;;;26.63;14.10;;;;;;;-4.16;79.47;99926.19;4961188;29;20046;-55
2021/12/08 08:18:43;;;;;;;26.58;14.60;;;;;;;-3.87;78.91;99943.38;4961638;29;20047;-56
2021/12/08 08:21:32;;;;;;;25.85;14.02;;;;;;;-3.49;79.18;100013.25;4958211;29;20134;-55
2021/12/08 08:24:19;;;;;;;24.50;14.05;;;;;;;-3.54;78.85;99991.09;4945515;29;20221;-55
2021/12/08 08:27:08;;;;;;;28.73;15.18;;;;;;;-3.62;77.81;100010.16;4947666;29;20027;-56
2021/12/08 08:29:55;;;;;;;26.83;14.93;;;;;;;-3.66;78.40;100015.09;4961598;29;20027;-56
2021/12/08 08:32:42;;;;;;;25.05;14.50;;;;;;;-3.47;78.75;100004.03;4960520;29;20067;-56
2021/12/08 08:35:39;;;;;;;26.02;14.68;;;;;;;-3.48;78.49;100004.84;4948041;29;20027;-56
2021/12/08 08:38:28;;;;;;;27.02;15.00;;;;;;;-3.67;78.69;99980.44;4961623;29;20058;-56
2021/12/08 08:41:52;;;;;;;26.60;15.32;;;;;;;-3.31;78.85;100010.59;4952836;28;20035;-57
2021/12/08 08:44:43;;;;;;;28.60;14.75;;;;;;;-3.50;78.08;99995.47;4929957;28;20040;-56
2021/12/08 08:47:37;;;;;;;29.45;15.82;;;;;;;-3.36;78.28;100046.66;4953370;28;20103;-56
2021/12/08 08:50:46;;;;;;;30.15;15.75;;;;;;;-3.50;77.42;99995.47;4952547;28;20035;-56
2021/12/08 08:53:37;;;;;;;29.38;16.13;;;;;;;-3.92;77.67;99932.19;4960328;28;20027;-56
2021/12/08 08:56:29;;;;;;;25.73;14.15;;;;;;;-3.77;77.62;99949.66;4958266;28;20039;-56
2021/12/08 08:59:21;;;;;;;25.77;13.98;;;;;;;-3.50;78.01;100006.44;4954260;28;20031;-56
2021/12/08 09:02:09;;;;;;;22.70;12.95;;;;;;;-3.85;78.34;100031.19;4946100;28;20043;-56
2021/12/08 09:05:03;;;;;;;25.48;13.75;;;;;;;-4.61;78.03;99890.59;4943306;29;20031;-55
2021/12/08 09:07:55;;;;;;;26.70;15.00;;;;;;;-3.64;78.11;100023.59;4961038;29;20428;-55
2021/12/08 09:10:54;;;;;;;27.85;13.63;;;;;;;-3.99;77.45;99961.41;4957753;29;20027;-54
2021/12/08 09:13:47;;;;;;;22.15;12.98;;;;;;;-3.62;77.20;100028.72;4959826;29;20042;-55
2021/12/08 09:16:38;;;;;;;23.13;13.43;;;;;;;-3.89;77.74;99962.66;4959584;29;20027;-55
2021/12/08 09:19:29;;;;;;;22.35;12.80;;;;;;;-3.72;76.22;100017.38;4960787;28;20057;-55
2021/12/08 09:22:28;;;;;;;22.60;13.43;;;;;;;-4.24;76.54;99945.22;4959129;29;20320;-57
2021/12/08 09:25:25;;;;;;;27.45;12.98;;;;;;;-3.87;77.32;100032.75;4954648;28;20122;-56
2021/12/08 09:28:38;;;;;;;24.15;13.85;;;;;;;-4.19;76.46;99964.00;4960277;29;20047;-55
2021/12/08 09:31:32;;;;;;;20.73;12.60;;;;;;;-4.58;77.67;99966.53;4953775;29;20253;-55
2021/12/08 09:34:43;;;;;;;22.88;12.30;;;;;;;-4.84;77.21;99950.22;4958130;29;20071;-55
2021/12/08 09:37:36;;;;;;;23.17;13.50;;;;;;;-4.26;77.42;100016.75;4956334;29;20066;-56
2021/12/08 09:40:36;;;;;;;23.23;13.18;;;;;;;-4.65;76.81;99956.09;4956890;29;20059;-56
2021/12/08 09:43:28;;;;;;;20.45;12.43;;;;;;;-4.85;78.16;99943.44;4949660;29;20019;-56
2021/12/08 09:46:26;;;;;;;23.30;12.35;;;;;;;-4.39;78.77;100017.88;4952783;28;20039;-55
2021/12/08 09:49:15;;;;;;;21.38;12.40;;;;;;;-4.30;78.01;100040.16;4955366;29;20038;-55
2021/12/08 09:52:05;;;;;;;21.02;12.20;;;;;;;-4.57;77.35;100020.47;4954215;28;20134;-55
2021/12/08 09:54:51;;;;;;;19.60;11.57;;;;;;;-4.95;79.24;100022.97;4951453;28;20039;-55
2021/12/08 09:57:37;;;;;;;22.92;12.88;;;;;;;-4.65;79.95;100021.78;4953310;29;20382;-55
2021/12/08 10:00:28;;;;;;;23.08;13.52;;;;;;;-4.97;78.18;99958.03;4950915;28;20349;-55
2021/12/08 10:03:16;;;;;;;;;;;;;;;-4.53;79.71;100030.78;4955848;28;20083;-56
2021/12/08 10:06:03;;;;;;;24.27;14.73;;;;;;;-4.63;78.05;100010.94;4954436;28;19914;-55
2021/12/08 10:08:50;;;;;;;23.88;14.35;;;;;;;-4.43;78.18;100033.69;4954148;28;20106;-55
2021/12/08 10:11:36;;;;;;;23.60;13.45;;;;;;;-4.49;77.32;100019.13;4969768;28;20041;-57
2021/12/08 10:14:23;;;;;;;25.60;13.70;;;;;;;-4.54;78.35;100021.47;4957652;28;20039;-55
2021/12/08 10:17:09;;;;;;;23.13;13.65;;;;;;;-4.46;77.84;100019.28;4954043;28;20311;-55
2021/12/08 10:20:18;;;;;;;21.52;13.23;;;;;;;-4.38;77.81;100019.63;4950129;28;20030;-55
2021/12/08 10:23:30;;;;;;;24.00;13.57;;;;;;;-4.29;78.13;100021.66;4959178;29;20039;-55
2021/12/08 10:26:17;;;;;;;23.63;12.80;;;;;;;-4.20;77.97;100042.31;4948472;29;20324;-56
2021/12/08 10:29:05;;;;;;;21.65;12.73;;;;;;;-4.31;78.22;100043.50;4960520;29;20035;-55
2021/12/08 10:31:53;;;;;;;21.33;12.45;;;;;;;-4.29;77.24;100039.38;4957505;28;20058;-55
2021/12/08 10:34:52;;;;;;;25.58;13.63;;;;;;;-4.38;77.33;100048.28;4959228;29;20035;-55
2021/12/08 10:37:39;;;;;;;24.20;12.90;;;;;;;-4.54;77.56;100039.16;4957796;28;20023;-55
2021/12/08 10:40:24;;;;;;;22.27;12.23;;;;;;;-4.53;77.49;100042.56;4956913;29;20339;-55
2021/12/08 10:43:15;;;;;;;22.02;12.35;;;;;;;-4.84;78.37;100053.78;4961058;28;20286;-56
2021/12/08 10:46:08;;;;;;;22.20;12.93;;;;;;;-4.97;78.36;99995.91;4957181;28;20038;-55
2021/12/08 10:49:18;;;;;;;22.15;12.63;;;;;;;-4.77;78.21;100067.56;4960173;28;20039;-55
2021/12/08 10:55:20;;;;;;;22.75;13.52;;;;;;;-4.89;78.25;100073.78;4942684;29;20035;-56
2021/12/08 10:58:18;;;;;;;25.58;13.68;;;;;;;-4.68;78.31;100053.66;4943609;29;20038;-56
2021/12/08 11:01:16;;;;;;;25.65;13.25;;;;;;;-4.64;79.08;100058.91;4957032;29;20304;-56
2021/12/08 11:04:08;;;;;;;26.10;13.15;;;;;;;-4.58;79.30;100075.19;4956804;29;20031;-56
2021/12/08 11:07:06;;;;;;;23.10;13.05;;;;;;;-4.45;77.28;100055.53;4958855;29;20039;-56
2021/12/08 11:09:52;;;;;;;23.15;12.95;;;;;;;-4.61;76.49;100064.94;4959451;29;20035;-56
2021/12/08 11:12:41;;;;;;;19.20;11.82;;;;;;;-4.71;78.63;100070.38;4953713;28;20090;-56
2021/12/08 11:15:29;;;;;;;21.25;12.05;;;;;;;-4.66;77.38;100071.44;4950386;29;20032;-55
2021/12/08 11:18:22;;;;;;;23.20;12.68;;;;;;;-4.54;78.19;100079.56;4964598;28;20031;-56
2021/12/08 11:21:20;;;;;;;22.35;12.25;;;;;;;-5.00;77.95;100009.28;4955317;29;20221;-55
2021/12/08 11:24:16;;;;;;;22.65;12.55;;;;;;;-5.06;77.27;100032.59;4949022;29;20031;-55
2021/12/08 11:27:08;;;;;;;23.85;12.30;;;;;;;-4.96;78.14;100022.91;4947923;29;20042;-55
2021/12/08 11:29:54;;;;;;;24.48;11.70;;;;;;;-5.00;78.26;100071.53;4959872;29;20043;-55
2021/12/08 11:32:39;;;;;;;24.80;13.00;;;;;;;-4.86;79.31;100073.03;4963566;29;20061;-56
2021/12/08 11:35:27;;;;;;;20.77;12.82;;;;;;;-4.87;78.51;100066.28;4950431;29;20035;-55
2021/12/08 11:38:13;;;;;;;18.92;12.13;;;;;;;-5.13;77.81;100088.63;4963306;29;20050;-56
2021/12/08 11:40:59;;;;;;;19.70;10.68;;;;;;;-4.98;79.01;100063.22;4957775;29;20051;-56
2021/12/08 11:43:51;;;;;;;19.83;11.00;;;;;;;-5.44;78.53;100041.72;4944321;29;20070;-55
2021/12/08 11:46:43;;;;;;;19.90;11.77;;;;;;;-5.45;77.88;100029.88;4963876;28;20290;-55
2021/12/08 11:49:30;;;;;;;21.30;12.18;;;;;;;-5.04;78.17;100083.16;4963723;29;20034;-55
2021/12/08 11:52:19;;;;;;;21.23;11.60;;;;;;;-5.35;77.91;100031.19;4962646;29;20027;-56
2021/12/08 11:55:09;;;;;;;21.38;11.10;;;;;;;-5.51;79.73;100087.63;4946654;29;20124;-56
2021/12/08 11:57:57;;;;;;;21.75;12.55;;;;;;;-5.65;78.68;100035.63;4948219;29;20238;-55
2021/12/08 12:00:48;;;;;;;21.52;11.88;;;;;;;-5.20;79.35;100092.50;4950134;28;20147;-55
2021/12/08 12:03:34;;;;;;;22.70;12.05;;;;;;;-5.17;79.83;100098.47;4962903;29;20077;-55
2021/12/08 12:06:27;;;;;;;19.60;10.57;;;;;;;-5.20;79.35;100084.09;4961841;29;20074;-56
2021/12/08 12:09:13;;;;;;;22.40;12.15;;;;;;;-5.12;77.88;100089.50;4956663;29;20055;-56
2021/12/08 12:11:59;;;;;;;22.10;11.93;;;;;;;-5.12;78.34;100097.06;4958909;29;20045;-55
2021/12/08 12:14:45;;;;;;;18.35;10.98;;;;;;;-5.12;77.36;100095.41;4961805;29;20208;-55
2021/12/08 12:17:32;;;;;;;18.88;11.00;;;;;;;-5.37;78.50;100098.41;4959714;29;20023;-56
2021/12/08 12:20:26;;;;;;;22.55;12.65;;;;;;;-5.24;79.74;100099.88;4958232;29;20385;-56
2021/12/08 12:23:12;;;;;;;22.88;12.63;;;;;;;-5.26;79.64;100101.44;4946798;29;20050;-55
2021/12/08 12:26:01;;;;;;;20.80;11.95;;;;;;;-5.26;77.98;100097.28;4959226;28;20043;-55
2021/12/08 12:28:58;;;;;;;20.00;11.38;;;;;;;-5.15;78.70;100102.81;4957942;28;20343;-55
2021/12/08 12:32:10;;;;;;;20.90;11.93;;;;;;;-5.53;78.29;100068.16;4959771;29;20031;-55
2021/12/08 12:35:10;;;;;;;20.35;11.80;;;;;;;-5.26;79.52;100119.09;4960152;28;20035;-56
2021/12/08 12:38:02;;;;;;;23.13;12.10;;;;;;;-5.23;78.94;100119.25;4960262;28;20062;-55
2021/12/08 12:40:51;;;;;;;21.40;11.50;;;;;;;-5.14;79.15;100124.75;4959321;29;20040;-55
2021/12/08 12:43:39;;;;;;;20.75;11.30;;;;;;;-5.10;78.67;100126.66;4952681;28;20027;-57
2021/12/08 12:46:25;;;;;;;21.05;10.93;;;;;;;-5.05;77.48;100120.16;4957016;28;20288;-55
2021/12/08 12:49:29;;;;;;;19.88;11.48;;;;;;;-4.86;77.59;100136.19;4952002;28;20216;-56
2021/12/08 12:52:18;;;;;;;23.13;10.98;;;;;;;-4.88;78.06;100145.34;4951845;28;20050;-55
2021/12/08 12:55:13;;;;;;;19.83;11.38;;;;;;;-5.04;76.75;100126.94;4951947;28;20316;-56
2021/12/08 12:58:05;;;;;;;21.17;11.60;;;;;;;-5.03;78.09;100126.16;4948650;29;20317;-55
2021/12/08 13:01:04;;;;;;;;;;;;;;;-4.91;77.34;100125.00;4948532;28;20023;-55
2021/12/08 13:03:56;;;;;;;18.83;10.70;;;;;;;-5.43;77.24;100070.31;4951611;28;19917;-58
2021/12/08 13:06:48;;;;;;;21.55;11.40;;;;;;;-5.94;78.61;100033.38;4956553;28;20340;-56
2021/12/08 13:09:37;;;;;;;18.85;11.02;;;;;;;-5.45;78.60;100135.84;4960069;29;20030;-56
2021/12/08 13:12:38;;;;;;;19.08;10.40;;;;;;;-5.44;78.58;100122.47;4960158;29;20031;-56
2021/12/08 13:15:27;;;;;;;20.08;11.02;;;;;;;-5.29;77.07;100136.63;4960489;29;20366;-56
2021/12/08 13:18:20;;;;;;;17.70;10.65;;;;;;;-5.37;78.24;100128.69;4961822;29;20050;-55
2021/12/08 13:21:06;;;;;;;21.10;11.38;;;;;;;-5.37;77.84;100131.22;4960714;29;20027;-56
2021/12/08 13:23:52;;;;;;;19.83;11.70;;;;;;;-5.38;79.10;100132.84;4945046;29;20027;-56
2021/12/08 13:26:49;;;;;;;18.08;10.75;;;;;;;-5.52;78.59;100117.81;4944280;29;20043;-55
2021/12/08 13:29:39;;;;;;;16.33;10.40;;;;;;;-5.58;77.59;100123.44;4945356;29;20027;-58
2021/12/08 13:32:44;;;;;;;17.42;10.55;;;;;;;-5.87;77.02;100137.94;4960428;29;20023;-56
2021/12/08 13:35:33;;;;;;;20.05;10.27;;;;;;;-6.12;79.22;100057.69;4952905;29;20109;-55
2021/12/08 13:38:20;;;;;;;17.73;11.10;;;;;;;-5.66;78.58;100134.78;4944209;29;20020;-54
2021/12/08 13:41:15;;;;;;;19.42;10.82;;;;;;;-5.62;78.63;100121.53;4954163;29;20067;-56